ETD171H OMAA-KLAX
Flight info
| Callsign | ETD171H |
|---|---|
| Flight time | N/A |
| Altitude | 32000 |
| Route | BOSEV N563 ALPOB L768 AAR V45 TRF R652 OBROD Q163 GENEX L53 SUVAS N128 TEZAK/N0489F340 N128 OTHON UN128 RDS UL609 MES UG18 FSK UN128 RUGAS DCT RAXAD DCT VAGEN DCT OBUTI DCT EPOLA DCT LIMRA/N0474F360 DCT LAMSI DCT ARMUT DCT KATCE DCT SUTEB DCT VALBO DCT AVRAL DCT BALIX/M084F360 DCT 61N020W 62N030W/M083F380 62N040W 61N050W DCT SAVRY/N0478F380 DCT LAKES DCT MCKEE DCT SOCAN DCT PEMLU/N0487F400 DCT YSP DCT DLH DCT SNY DCT DBL DCT CHESZ Q88 HAKMN ANJLL4 |
| Aircraft | A346/H-SDE2E3FGHIJ3J4J5M1RWXY/LB1D1 |
Departure
| Time | N/A |
|---|---|
| Airport | Zayed International Airport (OMAA) |
Arrival
| Time | 2026-05-05 06:42 |
|---|---|
| Airport | Los Angeles International Airport (KLAX) |
| Time | Latitude | Longitude | Altitude | Speed | Heading |
|---|---|---|---|---|---|
| 2026-05-05 00:12 | 58.04568 | -63.11588 | 39657 ft | 481 kts | 235° |
| 2026-05-05 00:12 | 58.01181 | -63.22475 | 39647 ft | 481 kts | 235° |
| 2026-05-05 00:13 | 57.97746 | -63.33281 | 39648 ft | 480 kts | 234° |
| 2026-05-05 00:13 | 57.94214 | -63.43967 | 39659 ft | 480 kts | 234° |
| 2026-05-05 00:14 | 57.90669 | -63.54614 | 39630 ft | 478 kts | 234° |
| 2026-05-05 00:14 | 57.87134 | -63.65226 | 39623 ft | 477 kts | 234° |
| 2026-05-05 00:15 | 57.83599 | -63.75795 | 39630 ft | 477 kts | 234° |
| 2026-05-05 00:15 | 57.80058 | -63.86336 | 39628 ft | 477 kts | 234° |
| 2026-05-05 00:16 | 57.76505 | -63.96862 | 39620 ft | 477 kts | 234° |
| 2026-05-05 00:16 | 57.72940 | -64.07372 | 39626 ft | 478 kts | 234° |
| 2026-05-05 00:17 | 57.69366 | -64.17872 | 39616 ft | 478 kts | 234° |
| 2026-05-05 00:17 | 57.65781 | -64.28356 | 39617 ft | 478 kts | 234° |
| 2026-05-05 00:18 | 57.62190 | -64.38810 | 39616 ft | 478 kts | 233° |
| 2026-05-05 00:18 | 57.58587 | -64.49253 | 39618 ft | 478 kts | 233° |
| 2026-05-05 00:19 | 57.54973 | -64.59677 | 39624 ft | 479 kts | 233° |
| 2026-05-05 00:19 | 57.51345 | -64.70105 | 39617 ft | 480 kts | 233° |
| 2026-05-05 00:20 | 57.47705 | -64.80521 | 39624 ft | 480 kts | 233° |
| 2026-05-05 00:20 | 57.44070 | -64.90875 | 39621 ft | 480 kts | 233° |
| 2026-05-05 00:21 | 57.40414 | -65.01246 | 39622 ft | 479 kts | 233° |
| 2026-05-05 00:21 | 57.36743 | -65.11605 | 39631 ft | 482 kts | 233° |
| 2026-05-05 00:22 | 57.33055 | -65.21975 | 39626 ft | 482 kts | 233° |
| 2026-05-05 00:22 | 57.29365 | -65.32308 | 39624 ft | 483 kts | 233° |
| 2026-05-05 00:23 | 57.25626 | -65.42731 | 39620 ft | 483 kts | 233° |
| 2026-05-05 00:23 | 57.21905 | -65.53062 | 39642 ft | 483 kts | 233° |
| 2026-05-05 00:24 | 57.18163 | -65.63419 | 39652 ft | 487 kts | 232° |
| 2026-05-05 00:24 | 57.14413 | -65.73725 | 39640 ft | 488 kts | 232° |
| 2026-05-05 00:25 | 57.10618 | -65.84117 | 39636 ft | 488 kts | 232° |
| 2026-05-05 00:25 | 57.06819 | -65.94481 | 39635 ft | 488 kts | 232° |
| 2026-05-05 00:26 | 57.03018 | -66.04806 | 39652 ft | 488 kts | 232° |
| 2026-05-05 00:26 | 56.99200 | -66.15130 | 39662 ft | 488 kts | 232° |
| 2026-05-05 00:27 | 56.95375 | -66.25430 | 39653 ft | 488 kts | 232° |
| 2026-05-05 00:27 | 56.91538 | -66.35719 | 39672 ft | 488 kts | 232° |
| 2026-05-05 00:28 | 56.87705 | -66.45951 | 39676 ft | 488 kts | 232° |
| 2026-05-05 00:28 | 56.83855 | -66.56186 | 39682 ft | 488 kts | 232° |
| 2026-05-05 00:29 | 56.80019 | -66.66318 | 39671 ft | 481 kts | 232° |
| 2026-05-05 00:29 | 56.76218 | -66.76343 | 39683 ft | 480 kts | 232° |
| 2026-05-05 00:30 | 56.72412 | -66.86328 | 39702 ft | 479 kts | 232° |
| 2026-05-05 00:30 | 56.68619 | -66.96254 | 39684 ft | 480 kts | 233° |
| 2026-05-05 00:31 | 56.65154 | -67.06641 | 39697 ft | 482 kts | 238° |
| 2026-05-05 00:31 | 56.61901 | -67.17306 | 39701 ft | 482 kts | 238° |
| 2026-05-05 00:32 | 56.58637 | -67.27927 | 39708 ft | 482 kts | 238° |
| 2026-05-05 00:32 | 56.55358 | -67.38537 | 39709 ft | 482 kts | 238° |
| 2026-05-05 00:33 | 56.52066 | -67.49138 | 39731 ft | 481 kts | 238° |
| 2026-05-05 00:33 | 56.48775 | -67.59682 | 39726 ft | 480 kts | 238° |
| 2026-05-05 00:34 | 56.45483 | -67.70191 | 39741 ft | 479 kts | 237° |
| 2026-05-05 00:34 | 56.42176 | -67.80695 | 39731 ft | 481 kts | 237° |
| 2026-05-05 00:35 | 56.38860 | -67.91185 | 39731 ft | 481 kts | 237° |
| 2026-05-05 00:35 | 56.35530 | -68.01671 | 39729 ft | 481 kts | 237° |
| 2026-05-05 00:36 | 56.32193 | -68.12135 | 39729 ft | 481 kts | 237° |
| 2026-05-05 00:36 | 56.28849 | -68.22573 | 39730 ft | 481 kts | 237° |
| 2026-05-05 00:37 | 56.25489 | -68.33016 | 39734 ft | 483 kts | 237° |
| 2026-05-05 00:37 | 56.22112 | -68.43472 | 39731 ft | 483 kts | 237° |
| 2026-05-05 00:38 | 56.18725 | -68.53904 | 39732 ft | 483 kts | 237° |
| 2026-05-05 00:38 | 56.15324 | -68.64335 | 39732 ft | 483 kts | 237° |
| 2026-05-05 00:39 | 56.12014 | -68.74444 | 39729 ft | 483 kts | 237° |
| 2026-05-05 00:39 | 56.08507 | -68.85107 | 39740 ft | 483 kts | 237° |
| 2026-05-05 00:40 | 56.05086 | -68.95464 | 39728 ft | 482 kts | 237° |
| 2026-05-05 00:40 | 56.01667 | -69.05775 | 39725 ft | 482 kts | 236° |
| 2026-05-05 00:41 | 55.98233 | -69.16084 | 39724 ft | 482 kts | 236° |
| 2026-05-05 00:41 | 55.94825 | -69.26276 | 39729 ft | 480 kts | 236° |
| 2026-05-05 00:42 | 55.91394 | -69.36488 | 39726 ft | 480 kts | 236° |
| 2026-05-05 00:42 | 55.87948 | -69.46689 | 39731 ft | 479 kts | 236° |
| 2026-05-05 00:43 | 55.84510 | -69.56842 | 39723 ft | 479 kts | 236° |
| 2026-05-05 00:43 | 55.81619 | -69.65345 | 39723 ft | 479 kts | 236° |
| 2026-05-05 00:44 | 55.77601 | -69.77110 | 39721 ft | 479 kts | 236° |
| 2026-05-05 00:44 | 55.74136 | -69.87211 | 39724 ft | 479 kts | 236° |
| 2026-05-05 00:45 | 55.71226 | -69.95656 | 39731 ft | 478 kts | 236° |
| 2026-05-05 00:45 | 55.67739 | -70.05739 | 39730 ft | 478 kts | 236° |
| 2026-05-05 00:46 | 55.63702 | -70.17371 | 39715 ft | 478 kts | 236° |
| 2026-05-05 00:46 | 55.60784 | -70.25740 | 39732 ft | 477 kts | 236° |
| 2026-05-05 00:47 | 55.57286 | -70.35737 | 39716 ft | 477 kts | 236° |
| 2026-05-05 00:47 | 55.53797 | -70.45663 | 39737 ft | 477 kts | 236° |
| 2026-05-05 00:48 | 55.50306 | -70.55551 | 39729 ft | 478 kts | 236° |
| 2026-05-05 00:48 | 55.46781 | -70.65504 | 39723 ft | 478 kts | 236° |
| 2026-05-05 00:49 | 55.43272 | -70.75369 | 39738 ft | 478 kts | 236° |
| 2026-05-05 00:49 | 55.39740 | -70.85262 | 39733 ft | 478 kts | 236° |
| 2026-05-05 00:50 | 55.36192 | -70.95152 | 39722 ft | 478 kts | 236° |
| 2026-05-05 00:50 | 55.32640 | -71.05012 | 39723 ft | 477 kts | 236° |
| 2026-05-05 00:51 | 55.29081 | -71.14857 | 39721 ft | 477 kts | 236° |
| 2026-05-05 00:51 | 55.25512 | -71.24689 | 39719 ft | 477 kts | 236° |
| 2026-05-05 00:52 | 55.21891 | -71.34624 | 39717 ft | 477 kts | 235° |
| 2026-05-05 00:52 | 55.18341 | -71.44325 | 39716 ft | 477 kts | 235° |
| 2026-05-05 00:53 | 55.14757 | -71.54079 | 39720 ft | 477 kts | 235° |
| 2026-05-05 00:53 | 55.11170 | -71.63806 | 39720 ft | 476 kts | 235° |
| 2026-05-05 00:54 | 55.07575 | -71.73514 | 39710 ft | 476 kts | 235° |
| 2026-05-05 00:54 | 55.03966 | -71.83222 | 39707 ft | 476 kts | 235° |
| 2026-05-05 00:55 | 55.00346 | -71.92922 | 39705 ft | 476 kts | 235° |
| 2026-05-05 00:55 | 54.96729 | -72.02575 | 39705 ft | 476 kts | 235° |
| 2026-05-05 00:56 | 54.93099 | -72.12220 | 39697 ft | 476 kts | 235° |
| 2026-05-05 00:56 | 54.89465 | -72.21844 | 39697 ft | 477 kts | 235° |
| 2026-05-05 00:57 | 54.85824 | -72.31451 | 39697 ft | 477 kts | 235° |
| 2026-05-05 00:57 | 54.82176 | -72.41036 | 39704 ft | 476 kts | 235° |
| 2026-05-05 00:58 | 54.78539 | -72.50555 | 39692 ft | 476 kts | 235° |
| 2026-05-05 00:58 | 54.74844 | -72.60190 | 39691 ft | 476 kts | 234° |
| 2026-05-05 00:59 | 54.71187 | -72.69688 | 39689 ft | 476 kts | 234° |
| 2026-05-05 00:59 | 54.67501 | -72.79224 | 39689 ft | 476 kts | 234° |
| 2026-05-05 01:00 | 54.63809 | -72.88739 | 39688 ft | 476 kts | 234° |
| 2026-05-05 01:00 | 54.60124 | -72.98200 | 39691 ft | 476 kts | 234° |
| 2026-05-05 01:01 | 54.56436 | -73.07631 | 39693 ft | 476 kts | 234° |
| 2026-05-05 01:01 | 54.52808 | -73.16875 | 39689 ft | 476 kts | 234° |
| 2026-05-05 01:02 | 54.49126 | -73.26224 | 39689 ft | 476 kts | 234° |
| 2026-05-05 01:02 | 54.45397 | -73.35655 | 39691 ft | 476 kts | 234° |
| 2026-05-05 01:03 | 54.41693 | -73.44987 | 39691 ft | 476 kts | 234° |
| 2026-05-05 01:03 | 54.38153 | -73.53873 | 39695 ft | 476 kts | 234° |
| 2026-05-05 01:04 | 54.34450 | -73.63133 | 39692 ft | 476 kts | 234° |
| 2026-05-05 01:04 | 54.28890 | -73.76977 | 39691 ft | 476 kts | 234° |
| 2026-05-05 01:05 | 54.25137 | -73.86276 | 39703 ft | 476 kts | 234° |
| 2026-05-05 01:05 | 54.21402 | -73.95498 | 39691 ft | 476 kts | 233° |
| 2026-05-05 01:06 | 54.17599 | -74.04849 | 39686 ft | 475 kts | 233° |
| 2026-05-05 01:06 | 54.13821 | -74.14107 | 39688 ft | 475 kts | 233° |
| 2026-05-05 01:07 | 54.10036 | -74.23345 | 39676 ft | 475 kts | 233° |
| 2026-05-05 01:07 | 54.06247 | -74.32560 | 39679 ft | 475 kts | 233° |
| 2026-05-05 01:08 | 54.02451 | -74.41759 | 39672 ft | 474 kts | 233° |
| 2026-05-05 01:08 | 53.98676 | -74.50868 | 39672 ft | 474 kts | 233° |
| 2026-05-05 01:09 | 53.94868 | -74.60026 | 39680 ft | 474 kts | 233° |
| 2026-05-05 01:09 | 53.91057 | -74.69158 | 39670 ft | 473 kts | 233° |
| 2026-05-05 01:10 | 53.87238 | -74.78268 | 39657 ft | 473 kts | 233° |
| 2026-05-05 01:10 | 53.83409 | -74.87362 | 39656 ft | 473 kts | 233° |
| 2026-05-05 01:11 | 53.79569 | -74.96425 | 39650 ft | 473 kts | 232° |
| 2026-05-05 01:11 | 53.75394 | -75.04997 | 39644 ft | 471 kts | 226° |
| 2026-05-05 01:12 | 53.70965 | -75.13165 | 39640 ft | 471 kts | 226° |
| 2026-05-05 01:12 | 53.66530 | -75.21334 | 39639 ft | 471 kts | 226° |
| 2026-05-05 01:13 | 53.62092 | -75.29475 | 39630 ft | 471 kts | 226° |
| 2026-05-05 01:13 | 53.57650 | -75.37593 | 39633 ft | 470 kts | 226° |
| 2026-05-05 01:14 | 53.53229 | -75.45645 | 39622 ft | 468 kts | 226° |
| 2026-05-05 01:14 | 53.48800 | -75.53681 | 39617 ft | 468 kts | 226° |
| 2026-05-05 01:15 | 53.44373 | -75.61689 | 39607 ft | 468 kts | 226° |
| 2026-05-05 01:15 | 53.39936 | -75.69688 | 39601 ft | 468 kts | 226° |
| 2026-05-05 01:16 | 53.35504 | -75.77655 | 39588 ft | 466 kts | 225° |
| 2026-05-05 01:16 | 53.31086 | -75.85570 | 39588 ft | 464 kts | 225° |
| 2026-05-05 01:17 | 53.26664 | -75.93466 | 39583 ft | 464 kts | 225° |
| 2026-05-05 01:17 | 53.22244 | -76.01333 | 39573 ft | 465 kts | 225° |
| 2026-05-05 01:18 | 53.17813 | -76.09192 | 39577 ft | 465 kts | 225° |
| 2026-05-05 01:18 | 53.13383 | -76.17029 | 39564 ft | 463 kts | 225° |
| 2026-05-05 01:19 | 53.08950 | -76.24839 | 39553 ft | 464 kts | 225° |
| 2026-05-05 01:19 | 53.04509 | -76.32642 | 39544 ft | 464 kts | 225° |
| 2026-05-05 01:20 | 53.00106 | -76.40355 | 39545 ft | 463 kts | 225° |
| 2026-05-05 01:20 | 52.95665 | -76.48102 | 39543 ft | 464 kts | 225° |
| 2026-05-05 01:21 | 52.91188 | -76.55890 | 39535 ft | 466 kts | 225° |
| 2026-05-05 01:21 | 52.86678 | -76.63718 | 39534 ft | 467 kts | 225° |
| 2026-05-05 01:22 | 52.82216 | -76.71435 | 39532 ft | 467 kts | 225° |
| 2026-05-05 01:22 | 52.77728 | -76.79170 | 39524 ft | 467 kts | 225° |
| 2026-05-05 01:23 | 52.73233 | -76.86895 | 39521 ft | 466 kts | 225° |
| 2026-05-05 01:23 | 52.68729 | -76.94608 | 39512 ft | 466 kts | 225° |
| 2026-05-05 01:24 | 52.64222 | -77.02301 | 39509 ft | 466 kts | 225° |
| 2026-05-05 01:24 | 52.59712 | -77.09975 | 39505 ft | 466 kts | 225° |
| 2026-05-05 01:25 | 52.55197 | -77.17634 | 39489 ft | 466 kts | 225° |
| 2026-05-05 01:25 | 52.50686 | -77.25263 | 39486 ft | 465 kts | 225° |
| 2026-05-05 01:26 | 52.46178 | -77.32862 | 39482 ft | 464 kts | 225° |
| 2026-05-05 01:26 | 52.41713 | -77.40365 | 39474 ft | 464 kts | 224° |
| 2026-05-05 01:27 | 52.37200 | -77.47927 | 39451 ft | 464 kts | 224° |
| 2026-05-05 01:27 | 52.32677 | -77.55477 | 39456 ft | 464 kts | 225° |
| 2026-05-05 01:28 | 52.28163 | -77.62992 | 39461 ft | 463 kts | 224° |
| 2026-05-05 01:28 | 52.23685 | -77.70426 | 39438 ft | 463 kts | 224° |
| 2026-05-05 01:29 | 52.19131 | -77.77963 | 39428 ft | 463 kts | 224° |
| 2026-05-05 01:29 | 52.14630 | -77.85388 | 39444 ft | 463 kts | 224° |
| 2026-05-05 01:30 | 52.10101 | -77.92832 | 39433 ft | 461 kts | 224° |
| 2026-05-05 01:30 | 52.05583 | -78.00241 | 39411 ft | 460 kts | 224° |
| 2026-05-05 01:31 | 52.01074 | -78.07613 | 39390 ft | 460 kts | 224° |
| 2026-05-05 01:31 | 51.96546 | -78.14991 | 39387 ft | 461 kts | 224° |
| 2026-05-05 01:32 | 51.92780 | -78.21110 | 39400 ft | 461 kts | 224° |
| 2026-05-05 01:32 | 51.88496 | -78.28516 | 39375 ft | 462 kts | 233° |
| 2026-05-05 01:33 | 51.85422 | -78.37660 | 39396 ft | 464 kts | 244° |
| 2026-05-05 01:33 | 51.82747 | -78.47147 | 39372 ft | 463 kts | 244° |
| 2026-05-05 01:34 | 51.80054 | -78.56577 | 39370 ft | 463 kts | 244° |
| 2026-05-05 01:34 | 51.77337 | -78.65981 | 39370 ft | 463 kts | 244° |
| 2026-05-05 01:35 | 51.74607 | -78.75363 | 39357 ft | 462 kts | 243° |
| 2026-05-05 01:35 | 51.71934 | -78.84491 | 39359 ft | 462 kts | 244° |
| 2026-05-05 01:36 | 51.69352 | -78.93288 | 39349 ft | 463 kts | 244° |
| 2026-05-05 01:36 | 51.66727 | -79.02206 | 39353 ft | 463 kts | 244° |
| 2026-05-05 01:37 | 51.64040 | -79.11291 | 39353 ft | 462 kts | 244° |
| 2026-05-05 01:37 | 51.61403 | -79.20174 | 39346 ft | 463 kts | 243° |
| 2026-05-05 01:38 | 51.58705 | -79.29227 | 39347 ft | 463 kts | 243° |
| 2026-05-05 01:38 | 51.55929 | -79.38506 | 39339 ft | 463 kts | 243° |
| 2026-05-05 01:39 | 51.53145 | -79.47771 | 39346 ft | 464 kts | 243° |
| 2026-05-05 01:39 | 51.50428 | -79.56783 | 39347 ft | 464 kts | 243° |
| 2026-05-05 01:40 | 51.47802 | -79.65463 | 39342 ft | 464 kts | 243° |
| 2026-05-05 01:40 | 51.45087 | -79.74402 | 39344 ft | 464 kts | 243° |
| 2026-05-05 01:41 | 51.42547 | -79.82734 | 39338 ft | 464 kts | 243° |
| 2026-05-05 01:41 | 51.39722 | -79.91964 | 39339 ft | 464 kts | 243° |
| 2026-05-05 01:42 | 51.36882 | -80.01201 | 39326 ft | 455 kts | 243° |
| 2026-05-05 01:42 | 51.34051 | -80.10376 | 39335 ft | 463 kts | 243° |
| 2026-05-05 01:43 | 51.31178 | -80.19653 | 39334 ft | 465 kts | 243° |
| 2026-05-05 01:43 | 51.28295 | -80.28916 | 39336 ft | 465 kts | 243° |
| 2026-05-05 01:44 | 51.25407 | -80.38213 | 39333 ft | 465 kts | 244° |
| 2026-05-05 01:44 | 51.22617 | -80.47559 | 39342 ft | 464 kts | 244° |
| 2026-05-05 01:45 | 51.19844 | -80.56844 | 39334 ft | 462 kts | 244° |
| 2026-05-05 01:45 | 51.17066 | -80.66070 | 39330 ft | 460 kts | 244° |
| 2026-05-05 01:46 | 51.14287 | -80.75246 | 39332 ft | 459 kts | 244° |
| 2026-05-05 01:46 | 51.11501 | -80.84400 | 39332 ft | 459 kts | 244° |
| 2026-05-05 01:47 | 51.08708 | -80.93540 | 39327 ft | 459 kts | 243° |
| 2026-05-05 01:47 | 51.05913 | -81.02659 | 39330 ft | 459 kts | 243° |
| 2026-05-05 01:48 | 51.03104 | -81.11782 | 39327 ft | 459 kts | 243° |
| 2026-05-05 01:48 | 51.00291 | -81.20879 | 39322 ft | 459 kts | 243° |
| 2026-05-05 01:49 | 50.97467 | -81.29981 | 39319 ft | 458 kts | 243° |
| 2026-05-05 01:49 | 50.94642 | -81.39056 | 39320 ft | 458 kts | 243° |
| 2026-05-05 01:50 | 50.91811 | -81.48116 | 39319 ft | 458 kts | 243° |
| 2026-05-05 01:50 | 50.88965 | -81.57186 | 39319 ft | 459 kts | 243° |
| 2026-05-05 01:51 | 50.86111 | -81.66253 | 39315 ft | 460 kts | 243° |
| 2026-05-05 01:51 | 50.83265 | -81.75261 | 39315 ft | 460 kts | 243° |
| 2026-05-05 01:52 | 50.80394 | -81.84315 | 39313 ft | 460 kts | 243° |
| 2026-05-05 01:52 | 50.77517 | -81.93352 | 39314 ft | 460 kts | 243° |
| 2026-05-05 01:53 | 50.74637 | -82.02369 | 39315 ft | 460 kts | 243° |
| 2026-05-05 01:53 | 50.71741 | -82.11396 | 39319 ft | 460 kts | 243° |
| 2026-05-05 01:54 | 50.68843 | -82.20405 | 39318 ft | 460 kts | 243° |
| 2026-05-05 01:54 | 50.65934 | -82.29412 | 39319 ft | 460 kts | 242° |
| 2026-05-05 01:55 | 50.63019 | -82.38406 | 39314 ft | 460 kts | 242° |
| 2026-05-05 01:55 | 50.60098 | -82.47381 | 39315 ft | 459 kts | 242° |
| 2026-05-05 01:56 | 50.57178 | -82.56328 | 39328 ft | 459 kts | 242° |
| 2026-05-05 01:56 | 50.54249 | -82.65268 | 39323 ft | 460 kts | 242° |
| 2026-05-05 01:57 | 50.51309 | -82.74209 | 39323 ft | 460 kts | 242° |
| 2026-05-05 01:57 | 50.48364 | -82.83132 | 39321 ft | 460 kts | 242° |
| 2026-05-05 01:58 | 50.45412 | -82.92046 | 39329 ft | 460 kts | 242° |
| 2026-05-05 01:58 | 50.42456 | -83.00940 | 39317 ft | 459 kts | 242° |
| 2026-05-05 01:59 | 50.39496 | -83.09810 | 39333 ft | 459 kts | 242° |
| 2026-05-05 01:59 | 50.36526 | -83.18685 | 39326 ft | 459 kts | 242° |
| 2026-05-05 02:00 | 50.33549 | -83.27550 | 39326 ft | 459 kts | 242° |
| 2026-05-05 02:00 | 50.30572 | -83.36384 | 39337 ft | 459 kts | 242° |
| 2026-05-05 02:01 | 50.27582 | -83.45222 | 39336 ft | 459 kts | 242° |
| 2026-05-05 02:01 | 50.24607 | -83.53987 | 39334 ft | 459 kts | 242° |
| 2026-05-05 02:02 | 50.21595 | -83.62824 | 39339 ft | 458 kts | 242° |
| 2026-05-05 02:02 | 50.18598 | -83.71594 | 39337 ft | 458 kts | 242° |
| 2026-05-05 02:03 | 50.15593 | -83.80358 | 39342 ft | 458 kts | 242° |
| 2026-05-05 02:03 | 50.12583 | -83.89103 | 39342 ft | 458 kts | 242° |
| 2026-05-05 02:04 | 50.09560 | -83.97859 | 39345 ft | 458 kts | 242° |
| 2026-05-05 02:04 | 50.06536 | -84.06583 | 39360 ft | 458 kts | 242° |
| 2026-05-05 02:05 | 50.03500 | -84.15310 | 39352 ft | 458 kts | 242° |
| 2026-05-05 02:05 | 50.00462 | -84.24017 | 39348 ft | 457 kts | 242° |
| 2026-05-05 02:06 | 49.97427 | -84.32688 | 39353 ft | 457 kts | 242° |
| 2026-05-05 02:06 | 49.94381 | -84.41359 | 39351 ft | 457 kts | 242° |
| 2026-05-05 02:07 | 49.91327 | -84.50024 | 39359 ft | 457 kts | 242° |
| 2026-05-05 02:07 | 49.88264 | -84.58682 | 39364 ft | 457 kts | 242° |
| 2026-05-05 02:08 | 49.85203 | -84.67307 | 39350 ft | 456 kts | 242° |
| 2026-05-05 02:08 | 49.82139 | -84.75913 | 39361 ft | 454 kts | 241° |
| 2026-05-05 02:09 | 49.79081 | -84.84474 | 39361 ft | 454 kts | 241° |
| 2026-05-05 02:09 | 49.76017 | -84.93020 | 39371 ft | 453 kts | 241° |
| 2026-05-05 02:10 | 49.72955 | -85.01535 | 39367 ft | 453 kts | 241° |
| 2026-05-05 02:10 | 49.69880 | -85.10058 | 39372 ft | 453 kts | 241° |
| 2026-05-05 02:11 | 49.66819 | -85.18513 | 39376 ft | 454 kts | 241° |
| 2026-05-05 02:11 | 49.63710 | -85.27074 | 39373 ft | 453 kts | 241° |
| 2026-05-05 02:12 | 49.59098 | -85.39718 | 39381 ft | 452 kts | 241° |
| 2026-05-05 02:13 | 49.56006 | -85.48160 | 39384 ft | 452 kts | 241° |
| 2026-05-05 02:13 | 49.52905 | -85.56598 | 39387 ft | 452 kts | 241° |
| 2026-05-05 02:14 | 49.49800 | -85.65024 | 39393 ft | 452 kts | 241° |
| 2026-05-05 02:14 | 49.46689 | -85.73436 | 39398 ft | 452 kts | 240° |
| 2026-05-05 02:15 | 49.43569 | -85.81845 | 39394 ft | 452 kts | 240° |
| 2026-05-05 02:15 | 49.40449 | -85.90226 | 39408 ft | 451 kts | 240° |
| 2026-05-05 02:16 | 49.37326 | -85.98588 | 39407 ft | 451 kts | 240° |
| 2026-05-05 02:16 | 49.34196 | -86.06941 | 39423 ft | 451 kts | 240° |
| 2026-05-05 02:17 | 49.31060 | -86.15287 | 39422 ft | 451 kts | 240° |
| 2026-05-05 02:17 | 49.27917 | -86.23620 | 39425 ft | 451 kts | 240° |
| 2026-05-05 02:18 | 49.24766 | -86.31948 | 39427 ft | 451 kts | 240° |
| 2026-05-05 02:18 | 49.21612 | -86.40253 | 39427 ft | 450 kts | 240° |
| 2026-05-05 02:19 | 49.18481 | -86.48470 | 39450 ft | 450 kts | 240° |
| 2026-05-05 02:19 | 49.15849 | -86.55349 | 39451 ft | 450 kts | 240° |
| 2026-05-05 02:20 | 49.12681 | -86.63613 | 39446 ft | 450 kts | 240° |
| 2026-05-05 02:20 | 49.09541 | -86.71901 | 39461 ft | 450 kts | 241° |
| 2026-05-05 02:21 | 49.06423 | -86.80216 | 39463 ft | 450 kts | 241° |
| 2026-05-05 02:21 | 49.03300 | -86.88495 | 39464 ft | 450 kts | 241° |
| 2026-05-05 02:22 | 49.00165 | -86.96757 | 39476 ft | 449 kts | 240° |
| 2026-05-05 02:22 | 48.97041 | -87.04963 | 39484 ft | 449 kts | 240° |
| 2026-05-05 02:23 | 48.93895 | -87.13201 | 39482 ft | 449 kts | 240° |
| 2026-05-05 02:23 | 48.90793 | -87.21293 | 39484 ft | 449 kts | 240° |
| 2026-05-05 02:24 | 48.87639 | -87.29497 | 39487 ft | 449 kts | 240° |
| 2026-05-05 02:24 | 48.84479 | -87.37689 | 39483 ft | 449 kts | 240° |
| 2026-05-05 02:25 | 48.81317 | -87.45858 | 39495 ft | 449 kts | 240° |
| 2026-05-05 02:25 | 48.78154 | -87.54010 | 39494 ft | 449 kts | 240° |
| 2026-05-05 02:26 | 48.74975 | -87.62176 | 39498 ft | 449 kts | 240° |
| 2026-05-05 02:26 | 48.71797 | -87.70315 | 39499 ft | 449 kts | 240° |
| 2026-05-05 02:27 | 48.68609 | -87.78454 | 39504 ft | 449 kts | 240° |
| 2026-05-05 02:27 | 48.65421 | -87.86565 | 39504 ft | 448 kts | 240° |
| 2026-05-05 02:28 | 48.62222 | -87.94681 | 39503 ft | 448 kts | 240° |
| 2026-05-05 02:28 | 48.59030 | -88.02758 | 39518 ft | 448 kts | 240° |
| 2026-05-05 02:29 | 48.55831 | -88.10829 | 39530 ft | 448 kts | 240° |
| 2026-05-05 02:29 | 48.52619 | -88.18905 | 39534 ft | 448 kts | 240° |
| 2026-05-05 02:30 | 48.49409 | -88.26953 | 39537 ft | 448 kts | 240° |
| 2026-05-05 02:30 | 48.46211 | -88.34945 | 39545 ft | 448 kts | 240° |
| 2026-05-05 02:31 | 48.42977 | -88.43003 | 39548 ft | 449 kts | 240° |
| 2026-05-05 02:31 | 48.39742 | -88.51038 | 39544 ft | 448 kts | 240° |
| 2026-05-05 02:32 | 48.36503 | -88.59060 | 39549 ft | 448 kts | 240° |
| 2026-05-05 02:32 | 48.33260 | -88.67072 | 39555 ft | 448 kts | 240° |
| 2026-05-05 02:33 | 48.30014 | -88.75065 | 39564 ft | 448 kts | 240° |
| 2026-05-05 02:33 | 48.26755 | -88.83067 | 39564 ft | 449 kts | 240° |
| 2026-05-05 02:34 | 48.23489 | -88.91060 | 39567 ft | 449 kts | 240° |
| 2026-05-05 02:34 | 48.20242 | -88.98979 | 39558 ft | 448 kts | 240° |
| 2026-05-05 02:35 | 48.16979 | -89.06919 | 39573 ft | 448 kts | 240° |
| 2026-05-05 02:35 | 48.13707 | -89.14858 | 39573 ft | 448 kts | 240° |
| 2026-05-05 02:36 | 48.10428 | -89.22791 | 39583 ft | 448 kts | 240° |
| 2026-05-05 02:36 | 48.07142 | -89.30718 | 39580 ft | 448 kts | 240° |
| 2026-05-05 02:37 | 48.03845 | -89.38647 | 39592 ft | 448 kts | 240° |
| 2026-05-05 02:37 | 48.00550 | -89.46546 | 39582 ft | 448 kts | 240° |
| 2026-05-05 02:38 | 47.97249 | -89.54434 | 39592 ft | 448 kts | 240° |
| 2026-05-05 02:38 | 47.93945 | -89.62311 | 39604 ft | 448 kts | 240° |
| 2026-05-05 02:39 | 47.90635 | -89.70180 | 39600 ft | 448 kts | 239° |
| 2026-05-05 02:39 | 47.87317 | -89.78043 | 39607 ft | 448 kts | 239° |
| 2026-05-05 02:40 | 47.84026 | -89.85820 | 39606 ft | 448 kts | 239° |
| 2026-05-05 02:40 | 47.80674 | -89.93720 | 39606 ft | 448 kts | 239° |
| 2026-05-05 02:41 | 47.77365 | -90.01487 | 39618 ft | 447 kts | 240° |
| 2026-05-05 02:41 | 47.74023 | -90.09319 | 39620 ft | 447 kts | 239° |
| 2026-05-05 02:42 | 47.70704 | -90.17075 | 39632 ft | 447 kts | 239° |
| 2026-05-05 02:42 | 47.67363 | -90.24859 | 39629 ft | 447 kts | 239° |
| 2026-05-05 02:43 | 47.64014 | -90.32637 | 39632 ft | 447 kts | 239° |
| 2026-05-05 02:43 | 47.60672 | -90.40378 | 39639 ft | 447 kts | 239° |
| 2026-05-05 02:44 | 47.57309 | -90.48137 | 39627 ft | 446 kts | 239° |
| 2026-05-05 02:44 | 47.53950 | -90.55875 | 39647 ft | 446 kts | 239° |
| 2026-05-05 02:45 | 47.50602 | -90.63568 | 39650 ft | 446 kts | 239° |
| 2026-05-05 02:45 | 47.47227 | -90.71298 | 39660 ft | 446 kts | 239° |
| 2026-05-05 02:46 | 47.43853 | -90.79004 | 39668 ft | 446 kts | 239° |
| 2026-05-05 02:46 | 47.40473 | -90.86700 | 39668 ft | 447 kts | 239° |
| 2026-05-05 02:47 | 47.37086 | -90.94388 | 39658 ft | 446 kts | 239° |
| 2026-05-05 02:47 | 47.33700 | -91.02055 | 39672 ft | 445 kts | 239° |
| 2026-05-05 02:48 | 47.30313 | -91.09704 | 39677 ft | 445 kts | 239° |
| 2026-05-05 02:48 | 47.26923 | -91.17339 | 39688 ft | 445 kts | 239° |
| 2026-05-05 02:49 | 47.23521 | -91.24979 | 39686 ft | 445 kts | 239° |
| 2026-05-05 02:49 | 47.20116 | -91.32603 | 39699 ft | 446 kts | 239° |
| 2026-05-05 02:50 | 47.16713 | -91.40202 | 39678 ft | 446 kts | 239° |
| 2026-05-05 02:50 | 47.13421 | -91.47526 | 39695 ft | 444 kts | 239° |
| 2026-05-05 02:51 | 47.10004 | -91.55080 | 39699 ft | 444 kts | 239° |
| 2026-05-05 02:51 | 47.06594 | -91.62657 | 39698 ft | 444 kts | 239° |
| 2026-05-05 02:52 | 47.03197 | -91.70168 | 39701 ft | 445 kts | 239° |
| 2026-05-05 02:52 | 46.99770 | -91.77719 | 39700 ft | 445 kts | 239° |
| 2026-05-05 02:53 | 46.96331 | -91.85273 | 39700 ft | 445 kts | 239° |
| 2026-05-05 02:53 | 46.92899 | -91.92784 | 39696 ft | 443 kts | 239° |
| 2026-05-05 02:54 | 46.89470 | -92.00271 | 39701 ft | 443 kts | 239° |
| 2026-05-05 02:54 | 46.86026 | -92.07762 | 39700 ft | 444 kts | 239° |
| 2026-05-05 02:55 | 46.82584 | -92.15227 | 39701 ft | 444 kts | 239° |
| 2026-05-05 02:55 | 46.79148 | -92.22740 | 39699 ft | 443 kts | 240° |
| 2026-05-05 02:56 | 46.75853 | -92.30335 | 39701 ft | 443 kts | 240° |
| 2026-05-05 02:56 | 46.72550 | -92.37940 | 39727 ft | 443 kts | 240° |
| 2026-05-05 02:57 | 46.69231 | -92.45526 | 39721 ft | 443 kts | 240° |
| 2026-05-05 02:57 | 46.65903 | -92.53094 | 39726 ft | 443 kts | 240° |
| 2026-05-05 02:58 | 46.62566 | -92.60659 | 39730 ft | 443 kts | 240° |
| 2026-05-05 02:58 | 46.59230 | -92.68197 | 39733 ft | 444 kts | 240° |
| 2026-05-05 02:59 | 46.55880 | -92.75746 | 39763 ft | 444 kts | 240° |
| 2026-05-05 02:59 | 46.52525 | -92.83281 | 39734 ft | 443 kts | 240° |
| 2026-05-05 03:00 | 46.49176 | -92.90782 | 39757 ft | 442 kts | 240° |
| 2026-05-05 03:00 | 46.45824 | -92.98274 | 39759 ft | 442 kts | 240° |
| 2026-05-05 03:01 | 46.42497 | -93.05692 | 39764 ft | 442 kts | 240° |
| 2026-05-05 03:01 | 46.39116 | -93.13208 | 39766 ft | 442 kts | 240° |
| 2026-05-05 03:02 | 46.35787 | -93.20587 | 39765 ft | 442 kts | 240° |
| 2026-05-05 03:02 | 46.32476 | -93.27902 | 39772 ft | 442 kts | 240° |
| 2026-05-05 03:03 | 46.29139 | -93.35260 | 39776 ft | 441 kts | 240° |
| 2026-05-05 03:03 | 46.25781 | -93.42648 | 39782 ft | 441 kts | 240° |
| 2026-05-05 03:04 | 46.22407 | -93.50050 | 39784 ft | 441 kts | 240° |
| 2026-05-05 03:04 | 46.19022 | -93.57455 | 39791 ft | 441 kts | 240° |
| 2026-05-05 03:05 | 46.15638 | -93.64839 | 39789 ft | 441 kts | 240° |
| 2026-05-05 03:05 | 46.12245 | -93.72222 | 39781 ft | 441 kts | 240° |
| 2026-05-05 03:06 | 46.08846 | -93.79598 | 39777 ft | 440 kts | 240° |
| 2026-05-05 03:06 | 46.05457 | -93.86934 | 39786 ft | 439 kts | 240° |
| 2026-05-05 03:07 | 46.02065 | -93.94260 | 39803 ft | 439 kts | 240° |
| 2026-05-05 03:07 | 45.99242 | -94.00337 | 39814 ft | 440 kts | 240° |
| 2026-05-05 03:08 | 45.95835 | -94.07659 | 39821 ft | 440 kts | 240° |
| 2026-05-05 03:08 | 45.92427 | -94.14965 | 39826 ft | 440 kts | 240° |
| 2026-05-05 03:09 | 45.89008 | -94.22275 | 39803 ft | 440 kts | 240° |
| 2026-05-05 03:09 | 45.85595 | -94.29551 | 39825 ft | 439 kts | 240° |
| 2026-05-05 03:10 | 45.82180 | -94.36812 | 39823 ft | 439 kts | 240° |
| 2026-05-05 03:10 | 45.78762 | -94.44062 | 39823 ft | 439 kts | 240° |
| 2026-05-05 03:11 | 45.75335 | -94.51315 | 39831 ft | 439 kts | 240° |
| 2026-05-05 03:11 | 45.71908 | -94.58549 | 39829 ft | 439 kts | 240° |
| 2026-05-05 03:12 | 45.68478 | -94.65768 | 39827 ft | 439 kts | 240° |
| 2026-05-05 03:12 | 45.65042 | -94.72977 | 39831 ft | 437 kts | 240° |
| 2026-05-05 03:13 | 45.61612 | -94.80163 | 39839 ft | 437 kts | 240° |
| 2026-05-05 03:13 | 45.58177 | -94.87341 | 39842 ft | 437 kts | 240° |
| 2026-05-05 03:14 | 45.54738 | -94.94508 | 39843 ft | 437 kts | 240° |
| 2026-05-05 03:14 | 45.51309 | -95.01635 | 39844 ft | 437 kts | 240° |
| 2026-05-05 03:15 | 45.47861 | -95.08780 | 39830 ft | 437 kts | 240° |
| 2026-05-05 03:15 | 45.44444 | -95.15847 | 39833 ft | 434 kts | 240° |
| 2026-05-05 03:16 | 45.40990 | -95.22973 | 39838 ft | 433 kts | 240° |
| 2026-05-05 03:16 | 45.37579 | -95.29993 | 39842 ft | 433 kts | 240° |
| 2026-05-05 03:17 | 45.34148 | -95.37038 | 39847 ft | 433 kts | 240° |
| 2026-05-05 03:17 | 45.30718 | -95.44058 | 39844 ft | 433 kts | 240° |
| 2026-05-05 03:18 | 45.27280 | -95.51080 | 39842 ft | 433 kts | 240° |
| 2026-05-05 03:18 | 45.23832 | -95.58107 | 39827 ft | 432 kts | 240° |
| 2026-05-05 03:19 | 45.18715 | -95.68501 | 39852 ft | 431 kts | 240° |
| 2026-05-05 03:19 | 45.15398 | -95.75221 | 39854 ft | 431 kts | 240° |
| 2026-05-05 03:20 | 45.12038 | -95.82006 | 39851 ft | 431 kts | 240° |
| 2026-05-05 03:20 | 45.08630 | -95.88877 | 39855 ft | 431 kts | 240° |
| 2026-05-05 03:21 | 45.05215 | -95.95746 | 39857 ft | 431 kts | 240° |
| 2026-05-05 03:21 | 45.01754 | -96.02685 | 39843 ft | 430 kts | 240° |
| 2026-05-05 03:22 | 44.98307 | -96.09583 | 39892 ft | 430 kts | 240° |
| 2026-05-05 03:22 | 44.94849 | -96.16488 | 39891 ft | 430 kts | 240° |
| 2026-05-05 03:23 | 44.91390 | -96.23380 | 39891 ft | 430 kts | 240° |
| 2026-05-05 03:23 | 44.87921 | -96.30274 | 39893 ft | 430 kts | 240° |
| 2026-05-05 03:24 | 44.84476 | -96.37104 | 39891 ft | 430 kts | 240° |
| 2026-05-05 03:24 | 44.80975 | -96.44024 | 39866 ft | 430 kts | 240° |
| 2026-05-05 03:25 | 44.77509 | -96.50855 | 39875 ft | 427 kts | 240° |
| 2026-05-05 03:25 | 44.74074 | -96.57618 | 39876 ft | 427 kts | 240° |
| 2026-05-05 03:26 | 44.70608 | -96.64425 | 39879 ft | 427 kts | 240° |
| 2026-05-05 03:26 | 44.67141 | -96.71217 | 39884 ft | 427 kts | 240° |
| 2026-05-05 03:27 | 44.63668 | -96.78005 | 39892 ft | 428 kts | 240° |
| 2026-05-05 03:27 | 44.60186 | -96.84793 | 39875 ft | 428 kts | 240° |
| 2026-05-05 03:28 | 44.56705 | -96.91559 | 39890 ft | 427 kts | 240° |
| 2026-05-05 03:28 | 44.53220 | -96.98324 | 39896 ft | 427 kts | 240° |
| 2026-05-05 03:29 | 44.49728 | -97.05084 | 39898 ft | 427 kts | 240° |
| 2026-05-05 03:29 | 44.46259 | -97.11782 | 39897 ft | 427 kts | 240° |
| 2026-05-05 03:30 | 44.42762 | -97.18519 | 39899 ft | 428 kts | 240° |
| 2026-05-05 03:30 | 44.39259 | -97.25253 | 39902 ft | 428 kts | 240° |
| 2026-05-05 03:31 | 44.35763 | -97.31950 | 39902 ft | 426 kts | 240° |
| 2026-05-05 03:31 | 44.32266 | -97.38643 | 39909 ft | 426 kts | 240° |
| 2026-05-05 03:32 | 44.28771 | -97.45318 | 39910 ft | 426 kts | 240° |
| 2026-05-05 03:32 | 44.25268 | -97.51991 | 39912 ft | 426 kts | 240° |
| 2026-05-05 03:33 | 44.21764 | -97.58649 | 39902 ft | 426 kts | 240° |
| 2026-05-05 03:33 | 44.18255 | -97.65301 | 39904 ft | 426 kts | 240° |
| 2026-05-05 03:34 | 44.14743 | -97.71940 | 39895 ft | 425 kts | 240° |
| 2026-05-05 03:34 | 44.11240 | -97.78549 | 39909 ft | 423 kts | 240° |
| 2026-05-05 03:35 | 44.07741 | -97.85143 | 39912 ft | 423 kts | 240° |
| 2026-05-05 03:35 | 44.04238 | -97.91725 | 39913 ft | 423 kts | 240° |
| 2026-05-05 03:36 | 44.00728 | -97.98306 | 39897 ft | 423 kts | 240° |
| 2026-05-05 03:36 | 43.97246 | -98.04818 | 39919 ft | 423 kts | 240° |
| 2026-05-05 03:37 | 43.93756 | -98.11331 | 39906 ft | 423 kts | 240° |
| 2026-05-05 03:37 | 43.90286 | -98.17783 | 39915 ft | 420 kts | 240° |
| 2026-05-05 03:38 | 43.86797 | -98.24269 | 39920 ft | 420 kts | 240° |
| 2026-05-05 03:38 | 43.83303 | -98.30748 | 39919 ft | 420 kts | 240° |
| 2026-05-05 03:39 | 43.79829 | -98.37172 | 39906 ft | 419 kts | 240° |
| 2026-05-05 03:39 | 43.76344 | -98.43604 | 39918 ft | 418 kts | 240° |
| 2026-05-05 03:40 | 43.72881 | -98.49982 | 39922 ft | 418 kts | 240° |
| 2026-05-05 03:40 | 43.69386 | -98.56403 | 39909 ft | 417 kts | 240° |
| 2026-05-05 03:41 | 43.65899 | -98.62798 | 39917 ft | 416 kts | 240° |
| 2026-05-05 03:41 | 43.62409 | -98.69183 | 39919 ft | 416 kts | 240° |
| 2026-05-05 03:42 | 43.58919 | -98.75555 | 39915 ft | 415 kts | 240° |
| 2026-05-05 03:42 | 43.55445 | -98.81884 | 39918 ft | 414 kts | 240° |
| 2026-05-05 03:43 | 43.51991 | -98.88163 | 39917 ft | 414 kts | 240° |
| 2026-05-05 03:43 | 43.48500 | -98.94494 | 39919 ft | 414 kts | 240° |
| 2026-05-05 03:44 | 43.45018 | -99.00792 | 39914 ft | 413 kts | 240° |
| 2026-05-05 03:44 | 43.41531 | -99.07092 | 39917 ft | 413 kts | 240° |
| 2026-05-05 03:45 | 43.38047 | -99.13371 | 39912 ft | 411 kts | 240° |
| 2026-05-05 03:45 | 43.34571 | -99.19622 | 39917 ft | 411 kts | 240° |
| 2026-05-05 03:46 | 43.31116 | -99.25821 | 39922 ft | 411 kts | 240° |
| 2026-05-05 03:46 | 43.27640 | -99.32047 | 39924 ft | 411 kts | 240° |
| 2026-05-05 03:47 | 43.24178 | -99.38232 | 39897 ft | 411 kts | 240° |
| 2026-05-05 03:47 | 43.20675 | -99.44473 | 39927 ft | 409 kts | 240° |
| 2026-05-05 03:48 | 43.17204 | -99.50655 | 39926 ft | 409 kts | 240° |
| 2026-05-05 03:48 | 43.13728 | -99.56828 | 39934 ft | 409 kts | 240° |
| 2026-05-05 03:49 | 43.10274 | -99.62949 | 39936 ft | 409 kts | 240° |
| 2026-05-05 03:49 | 43.06791 | -99.69107 | 39941 ft | 409 kts | 240° |
| 2026-05-05 03:50 | 43.03323 | -99.75227 | 39938 ft | 409 kts | 240° |
| 2026-05-05 03:50 | 42.99849 | -99.81340 | 39914 ft | 408 kts | 240° |
| 2026-05-05 03:51 | 42.96639 | -99.87681 | 39928 ft | 396 kts | 249° |
| 2026-05-05 03:51 | 42.94172 | -99.94355 | 39937 ft | 396 kts | 250° |
| 2026-05-05 03:52 | 42.91682 | -100.01083 | 39949 ft | 397 kts | 249° |
| 2026-05-05 03:52 | 42.89176 | -100.07799 | 39947 ft | 397 kts | 249° |
| 2026-05-05 03:53 | 42.86660 | -100.14512 | 39953 ft | 397 kts | 249° |
| 2026-05-05 03:53 | 42.84138 | -100.21214 | 39931 ft | 397 kts | 249° |
| 2026-05-05 03:54 | 42.81618 | -100.27895 | 39944 ft | 396 kts | 249° |
| 2026-05-05 03:54 | 42.79093 | -100.34568 | 39954 ft | 396 kts | 249° |
| 2026-05-05 03:55 | 42.76565 | -100.41236 | 39942 ft | 396 kts | 249° |
| 2026-05-05 03:55 | 42.74465 | -100.46758 | 39930 ft | 395 kts | 249° |
| 2026-05-05 03:56 | 42.71938 | -100.53385 | 39947 ft | 393 kts | 249° |
| 2026-05-05 03:56 | 42.69421 | -100.59985 | 39936 ft | 392 kts | 249° |
| 2026-05-05 03:57 | 42.66907 | -100.66555 | 39948 ft | 391 kts | 249° |
| 2026-05-05 03:57 | 42.64394 | -100.73107 | 39956 ft | 391 kts | 249° |
| 2026-05-05 03:58 | 42.61873 | -100.79667 | 39952 ft | 391 kts | 249° |
| 2026-05-05 03:58 | 42.59351 | -100.86212 | 39953 ft | 391 kts | 249° |
| 2026-05-05 03:59 | 42.56827 | -100.92748 | 39959 ft | 391 kts | 249° |
| 2026-05-05 03:59 | 42.54294 | -100.99292 | 39958 ft | 391 kts | 249° |
| 2026-05-05 04:00 | 42.51763 | -101.05815 | 39963 ft | 391 kts | 249° |
| 2026-05-05 04:00 | 42.49224 | -101.12345 | 39964 ft | 391 kts | 249° |
| 2026-05-05 04:01 | 42.46687 | -101.18852 | 39939 ft | 389 kts | 249° |
| 2026-05-05 04:01 | 42.44225 | -101.25150 | 39954 ft | 387 kts | 249° |
| 2026-05-05 04:02 | 42.41911 | -101.31068 | 39939 ft | 387 kts | 249° |
| 2026-05-05 04:02 | 42.39815 | -101.36416 | 39950 ft | 386 kts | 249° |
| 2026-05-05 04:03 | 42.37735 | -101.41710 | 39961 ft | 386 kts | 249° |
| 2026-05-05 04:03 | 42.35641 | -101.47030 | 39962 ft | 386 kts | 249° |
| 2026-05-05 04:04 | 42.33508 | -101.52438 | 39963 ft | 386 kts | 249° |
| 2026-05-05 04:04 | 42.31432 | -101.57693 | 39962 ft | 386 kts | 249° |
| 2026-05-05 04:05 | 42.29236 | -101.63240 | 39959 ft | 386 kts | 249° |
| 2026-05-05 04:05 | 42.26824 | -101.69321 | 39944 ft | 386 kts | 248° |
| 2026-05-05 04:06 | 42.24291 | -101.75693 | 39950 ft | 385 kts | 248° |
| 2026-05-05 04:06 | 42.21752 | -101.82066 | 39954 ft | 385 kts | 248° |
| 2026-05-05 04:07 | 42.19229 | -101.88385 | 39952 ft | 385 kts | 248° |
| 2026-05-05 04:07 | 42.16935 | -101.94120 | 39949 ft | 385 kts | 248° |
| 2026-05-05 04:08 | 42.14557 | -102.00052 | 39944 ft | 385 kts | 248° |
| 2026-05-05 04:08 | 42.12212 | -102.05891 | 39927 ft | 385 kts | 248° |
| 2026-05-05 04:09 | 42.09792 | -102.11901 | 39940 ft | 384 kts | 248° |
| 2026-05-05 04:09 | 42.07438 | -102.17740 | 39938 ft | 384 kts | 248° |
| 2026-05-05 04:10 | 42.05055 | -102.23636 | 39946 ft | 384 kts | 248° |
| 2026-05-05 04:10 | 42.02509 | -102.29921 | 39936 ft | 384 kts | 248° |
| 2026-05-05 04:11 | 41.99962 | -102.36197 | 39934 ft | 384 kts | 248° |
| 2026-05-05 04:11 | 41.97402 | -102.42494 | 39948 ft | 384 kts | 248° |
| 2026-05-05 04:12 | 41.94869 | -102.48709 | 39951 ft | 383 kts | 248° |
| 2026-05-05 04:12 | 41.92323 | -102.54938 | 39914 ft | 383 kts | 248° |
| 2026-05-05 04:13 | 41.89914 | -102.60822 | 39947 ft | 381 kts | 248° |
| 2026-05-05 04:13 | 41.87793 | -102.65994 | 39953 ft | 381 kts | 248° |
| 2026-05-05 04:14 | 41.85335 | -102.71977 | 39957 ft | 381 kts | 248° |
| 2026-05-05 04:14 | 41.82772 | -102.78203 | 39920 ft | 381 kts | 248° |
| 2026-05-05 04:15 | 41.80338 | -102.84105 | 39927 ft | 381 kts | 248° |
| 2026-05-05 04:15 | 41.78362 | -102.88881 | 39922 ft | 381 kts | 248° |
| 2026-05-05 04:16 | 41.76328 | -102.93793 | 39914 ft | 381 kts | 248° |
| 2026-05-05 04:16 | 41.74389 | -102.98465 | 39904 ft | 381 kts | 247° |
| 2026-05-05 04:17 | 41.72187 | -103.03762 | 39896 ft | 381 kts | 247° |
| 2026-05-05 04:17 | 41.69983 | -103.09055 | 39901 ft | 381 kts | 247° |
| 2026-05-05 04:18 | 41.67767 | -103.14367 | 39860 ft | 381 kts | 247° |
| 2026-05-05 04:18 | 41.65571 | -103.19621 | 39884 ft | 382 kts | 247° |
| 2026-05-05 04:19 | 41.62984 | -103.25787 | 39873 ft | 383 kts | 247° |
| 2026-05-05 04:19 | 41.60373 | -103.32000 | 39890 ft | 383 kts | 247° |
| 2026-05-05 04:20 | 41.57773 | -103.38213 | 39892 ft | 383 kts | 247° |
| 2026-05-05 04:20 | 41.55181 | -103.44432 | 39891 ft | 383 kts | 247° |
| 2026-05-05 04:21 | 41.52578 | -103.50647 | 39864 ft | 383 kts | 246° |
| 2026-05-05 04:21 | 41.49967 | -103.56864 | 39882 ft | 384 kts | 246° |
| 2026-05-05 04:22 | 41.47346 | -103.63076 | 39917 ft | 384 kts | 246° |
| 2026-05-05 04:22 | 41.44720 | -103.69288 | 39922 ft | 384 kts | 246° |
| 2026-05-05 04:23 | 41.42092 | -103.75489 | 39934 ft | 384 kts | 246° |
| 2026-05-05 04:23 | 41.39460 | -103.81691 | 39941 ft | 384 kts | 246° |
| 2026-05-05 04:24 | 41.36822 | -103.87894 | 39919 ft | 384 kts | 246° |
| 2026-05-05 04:25 | 41.32867 | -103.97159 | 39908 ft | 382 kts | 246° |
| 2026-05-05 04:25 | 41.30242 | -104.03296 | 39906 ft | 382 kts | 246° |
| 2026-05-05 04:26 | 41.27610 | -104.09440 | 39886 ft | 382 kts | 246° |
| 2026-05-05 04:26 | 41.24976 | -104.15572 | 39885 ft | 382 kts | 246° |
| 2026-05-05 04:27 | 41.22337 | -104.21708 | 39880 ft | 382 kts | 246° |
| 2026-05-05 04:27 | 41.19698 | -104.27833 | 39888 ft | 382 kts | 246° |
| 2026-05-05 04:28 | 41.17062 | -104.33932 | 39894 ft | 381 kts | 246° |
| 2026-05-05 04:28 | 41.14415 | -104.40043 | 39901 ft | 382 kts | 246° |
| 2026-05-05 04:29 | 41.11765 | -104.46151 | 39917 ft | 382 kts | 245° |
| 2026-05-05 04:29 | 41.09111 | -104.52255 | 39935 ft | 382 kts | 245° |
| 2026-05-05 04:30 | 41.06471 | -104.58314 | 39945 ft | 382 kts | 245° |
| 2026-05-05 04:30 | 41.03799 | -104.64426 | 39951 ft | 376 kts | 246° |
| 2026-05-05 04:31 | 41.01199 | -104.70368 | 39957 ft | 373 kts | 246° |
| 2026-05-05 04:31 | 40.98601 | -104.76303 | 39954 ft | 372 kts | 246° |
| 2026-05-05 04:32 | 40.95998 | -104.82236 | 39943 ft | 372 kts | 246° |
| 2026-05-05 04:32 | 40.93391 | -104.88163 | 39925 ft | 372 kts | 246° |
| 2026-05-05 04:33 | 40.90783 | -104.94088 | 39888 ft | 372 kts | 245° |
| 2026-05-05 04:33 | 40.88172 | -105.00003 | 39873 ft | 372 kts | 245° |
| 2026-05-05 04:34 | 40.85551 | -105.05924 | 39854 ft | 372 kts | 245° |
| 2026-05-05 04:34 | 40.82928 | -105.11837 | 39847 ft | 372 kts | 245° |
| 2026-05-05 04:35 | 40.80305 | -105.17743 | 39845 ft | 372 kts | 245° |
| 2026-05-05 04:35 | 40.77680 | -105.23639 | 39844 ft | 373 kts | 245° |
| 2026-05-05 04:36 | 40.75047 | -105.29544 | 39787 ft | 373 kts | 245° |
| 2026-05-05 04:36 | 40.72443 | -105.35363 | 39834 ft | 364 kts | 245° |
| 2026-05-05 04:37 | 40.69869 | -105.41116 | 39847 ft | 363 kts | 245° |
| 2026-05-05 04:37 | 40.67298 | -105.46853 | 39848 ft | 364 kts | 245° |
| 2026-05-05 04:38 | 40.64717 | -105.52597 | 39849 ft | 364 kts | 245° |
| 2026-05-05 04:38 | 40.62137 | -105.58330 | 39859 ft | 364 kts | 245° |
| 2026-05-05 04:39 | 40.59571 | -105.64022 | 39859 ft | 364 kts | 245° |
| 2026-05-05 04:39 | 40.56981 | -105.69762 | 39865 ft | 365 kts | 245° |
| 2026-05-05 04:40 | 40.54394 | -105.75472 | 39864 ft | 364 kts | 245° |
| 2026-05-05 04:40 | 40.51806 | -105.81175 | 39859 ft | 363 kts | 244° |
| 2026-05-05 04:41 | 40.49268 | -105.86761 | 39859 ft | 364 kts | 244° |
| 2026-05-05 04:41 | 40.46804 | -105.92173 | 39860 ft | 364 kts | 244° |
| 2026-05-05 04:42 | 40.44258 | -105.97754 | 39821 ft | 363 kts | 245° |
| 2026-05-05 04:42 | 40.41729 | -106.03289 | 39845 ft | 359 kts | 244° |
| 2026-05-05 04:43 | 40.39614 | -106.07910 | 39854 ft | 359 kts | 244° |
| 2026-05-05 04:43 | 40.37063 | -106.13477 | 39871 ft | 359 kts | 244° |
| 2026-05-05 04:44 | 40.34500 | -106.19061 | 39869 ft | 359 kts | 244° |
| 2026-05-05 04:44 | 40.31933 | -106.24643 | 39861 ft | 359 kts | 244° |
| 2026-05-05 04:45 | 40.29359 | -106.30229 | 39867 ft | 359 kts | 244° |
| 2026-05-05 04:45 | 40.26764 | -106.35851 | 39826 ft | 360 kts | 244° |
| 2026-05-05 04:46 | 40.24177 | -106.41450 | 39859 ft | 359 kts | 244° |
| 2026-05-05 04:46 | 40.21598 | -106.47009 | 39867 ft | 359 kts | 244° |
| 2026-05-05 04:47 | 40.19001 | -106.52605 | 39864 ft | 360 kts | 244° |
| 2026-05-05 04:47 | 40.16393 | -106.58212 | 39865 ft | 360 kts | 244° |
| 2026-05-05 04:48 | 40.13787 | -106.63804 | 39863 ft | 359 kts | 244° |
| 2026-05-05 04:48 | 40.11189 | -106.69365 | 39865 ft | 357 kts | 244° |
| 2026-05-05 04:49 | 40.08607 | -106.74896 | 39869 ft | 357 kts | 243° |
| 2026-05-05 04:49 | 40.06027 | -106.80400 | 39882 ft | 357 kts | 243° |
| 2026-05-05 04:50 | 40.03424 | -106.85943 | 39882 ft | 357 kts | 243° |
| 2026-05-05 04:50 | 40.00838 | -106.91440 | 39897 ft | 357 kts | 243° |
| 2026-05-05 04:51 | 39.98239 | -106.96957 | 39902 ft | 357 kts | 243° |
| 2026-05-05 04:51 | 39.95715 | -107.02302 | 39914 ft | 358 kts | 243° |
| 2026-05-05 04:52 | 39.93176 | -107.07675 | 39922 ft | 358 kts | 243° |
| 2026-05-05 04:52 | 39.90586 | -107.13126 | 39924 ft | 358 kts | 242° |
| 2026-05-05 04:53 | 39.87962 | -107.18643 | 39921 ft | 358 kts | 242° |
| 2026-05-05 04:53 | 39.85331 | -107.24180 | 39919 ft | 359 kts | 243° |
| 2026-05-05 04:54 | 39.82709 | -107.29720 | 39911 ft | 359 kts | 243° |
| 2026-05-05 04:54 | 39.80135 | -107.35143 | 39900 ft | 355 kts | 242° |
| 2026-05-05 04:55 | 39.77708 | -107.40234 | 39881 ft | 353 kts | 242° |
| 2026-05-05 04:55 | 39.75274 | -107.45342 | 39915 ft | 354 kts | 242° |
| 2026-05-05 04:56 | 39.72756 | -107.50596 | 39940 ft | 354 kts | 242° |
| 2026-05-05 04:56 | 39.70196 | -107.55931 | 39952 ft | 354 kts | 242° |
| 2026-05-05 04:57 | 39.67592 | -107.61348 | 39975 ft | 354 kts | 242° |
| 2026-05-05 04:57 | 39.64975 | -107.66783 | 39991 ft | 354 kts | 242° |
| 2026-05-05 04:58 | 39.62359 | -107.72206 | 40017 ft | 354 kts | 242° |
| 2026-05-05 04:58 | 39.59765 | -107.77588 | 40014 ft | 354 kts | 241° |
| 2026-05-05 04:59 | 39.57148 | -107.82993 | 39860 ft | 354 kts | 241° |
| 2026-05-05 04:59 | 39.54520 | -107.88410 | 39832 ft | 355 kts | 241° |
| 2026-05-05 05:00 | 39.51859 | -107.93894 | 39838 ft | 362 kts | 240° |
| 2026-05-05 05:00 | 39.49170 | -107.99419 | 39837 ft | 363 kts | 241° |
| 2026-05-05 05:01 | 39.46489 | -108.04920 | 39810 ft | 361 kts | 240° |
| 2026-05-05 05:01 | 39.43796 | -108.10440 | 39816 ft | 363 kts | 240° |
| 2026-05-05 05:02 | 39.41101 | -108.15948 | 39782 ft | 362 kts | 240° |
| 2026-05-05 05:02 | 39.38405 | -108.21450 | 39793 ft | 362 kts | 240° |
| 2026-05-05 05:03 | 39.35704 | -108.26955 | 39811 ft | 362 kts | 240° |
| 2026-05-05 05:03 | 39.33003 | -108.32451 | 39828 ft | 362 kts | 240° |
| 2026-05-05 05:04 | 39.30301 | -108.37939 | 39854 ft | 362 kts | 240° |
| 2026-05-05 05:04 | 39.27593 | -108.43429 | 39863 ft | 362 kts | 240° |
| 2026-05-05 05:05 | 39.24886 | -108.48913 | 39885 ft | 362 kts | 240° |
| 2026-05-05 05:05 | 39.22171 | -108.54394 | 39894 ft | 362 kts | 240° |
| 2026-05-05 05:06 | 39.19452 | -108.59876 | 39906 ft | 363 kts | 240° |
| 2026-05-05 05:06 | 39.16744 | -108.65327 | 39896 ft | 363 kts | 240° |
| 2026-05-05 05:07 | 39.14001 | -108.70840 | 39870 ft | 363 kts | 240° |
| 2026-05-05 05:07 | 39.11285 | -108.76284 | 39743 ft | 364 kts | 240° |
| 2026-05-05 05:08 | 39.08554 | -108.81784 | 39738 ft | 365 kts | 239° |
| 2026-05-05 05:08 | 39.05805 | -108.87281 | 39744 ft | 364 kts | 239° |
| 2026-05-05 05:09 | 39.03059 | -108.92763 | 39747 ft | 365 kts | 239° |
| 2026-05-05 05:09 | 39.00308 | -108.98245 | 39747 ft | 366 kts | 239° |
| 2026-05-05 05:10 | 38.97550 | -109.03734 | 39745 ft | 365 kts | 239° |
| 2026-05-05 05:10 | 38.94789 | -109.09215 | 39750 ft | 365 kts | 239° |
| 2026-05-05 05:11 | 38.92028 | -109.14699 | 39739 ft | 366 kts | 238° |
| 2026-05-05 05:11 | 38.89246 | -109.20205 | 39742 ft | 367 kts | 238° |
| 2026-05-05 05:12 | 38.86462 | -109.25704 | 39735 ft | 367 kts | 238° |
| 2026-05-05 05:12 | 38.83669 | -109.31211 | 39727 ft | 367 kts | 238° |
| 2026-05-05 05:13 | 38.80885 | -109.36691 | 39739 ft | 366 kts | 238° |
| 2026-05-05 05:13 | 38.78114 | -109.42139 | 39735 ft | 367 kts | 238° |
| 2026-05-05 05:14 | 38.75318 | -109.47630 | 39736 ft | 368 kts | 238° |
| 2026-05-05 05:14 | 38.72513 | -109.53127 | 39735 ft | 369 kts | 238° |
| 2026-05-05 05:15 | 38.69695 | -109.58634 | 39738 ft | 369 kts | 238° |
| 2026-05-05 05:15 | 38.66879 | -109.64128 | 39742 ft | 369 kts | 238° |
| 2026-05-05 05:16 | 38.64058 | -109.69622 | 39733 ft | 369 kts | 238° |
| 2026-05-05 05:16 | 38.61239 | -109.75106 | 39727 ft | 369 kts | 238° |
| 2026-05-05 05:17 | 38.58407 | -109.80604 | 39726 ft | 370 kts | 237° |
| 2026-05-05 05:17 | 38.55555 | -109.86139 | 39723 ft | 373 kts | 237° |
| 2026-05-05 05:18 | 38.52874 | -109.91321 | 39726 ft | 374 kts | 237° |
| 2026-05-05 05:18 | 38.50009 | -109.96857 | 39708 ft | 373 kts | 237° |
| 2026-05-05 05:19 | 38.47141 | -110.02378 | 39714 ft | 373 kts | 237° |
| 2026-05-05 05:19 | 38.44265 | -110.07899 | 39724 ft | 374 kts | 237° |
| 2026-05-05 05:20 | 38.41386 | -110.13429 | 39723 ft | 374 kts | 237° |
| 2026-05-05 05:20 | 38.38533 | -110.19004 | 39723 ft | 376 kts | 237° |
| 2026-05-05 05:21 | 38.35701 | -110.24561 | 39736 ft | 376 kts | 237° |
| 2026-05-05 05:21 | 38.32842 | -110.30147 | 39729 ft | 377 kts | 237° |
| 2026-05-05 05:22 | 38.29953 | -110.35772 | 39726 ft | 377 kts | 237° |
| 2026-05-05 05:22 | 38.27109 | -110.41296 | 39725 ft | 377 kts | 237° |
| 2026-05-05 05:23 | 38.24232 | -110.46872 | 39732 ft | 377 kts | 237° |
| 2026-05-05 05:23 | 38.21327 | -110.52495 | 39728 ft | 382 kts | 237° |
| 2026-05-05 05:24 | 38.18397 | -110.58150 | 39729 ft | 383 kts | 237° |
| 2026-05-05 05:24 | 38.15466 | -110.63803 | 39781 ft | 381 kts | 237° |
| 2026-05-05 05:25 | 38.12543 | -110.69428 | 39771 ft | 381 kts | 237° |
| 2026-05-05 05:25 | 38.09625 | -110.75032 | 39759 ft | 382 kts | 237° |
| 2026-05-05 05:26 | 38.06690 | -110.80659 | 39742 ft | 381 kts | 237° |
| 2026-05-05 05:26 | 38.03745 | -110.86306 | 39746 ft | 385 kts | 236° |
| 2026-05-05 05:27 | 38.00774 | -110.91984 | 39762 ft | 386 kts | 236° |
| 2026-05-05 05:27 | 37.96320 | -111.00479 | 39760 ft | 386 kts | 236° |
| 2026-05-05 05:28 | 37.93349 | -111.06132 | 39767 ft | 387 kts | 236° |
| 2026-05-05 05:28 | 37.90367 | -111.11797 | 39768 ft | 387 kts | 236° |
| 2026-05-05 05:29 | 37.87391 | -111.17438 | 39787 ft | 391 kts | 236° |
| 2026-05-05 05:29 | 37.84351 | -111.23192 | 39782 ft | 393 kts | 236° |
| 2026-05-05 05:30 | 37.81321 | -111.28920 | 39787 ft | 390 kts | 236° |
| 2026-05-05 05:30 | 37.78309 | -111.34601 | 39790 ft | 390 kts | 236° |
| 2026-05-05 05:31 | 37.75790 | -111.39345 | 39785 ft | 390 kts | 236° |
| 2026-05-05 05:31 | 37.72791 | -111.44984 | 39810 ft | 390 kts | 236° |
| 2026-05-05 05:32 | 37.69751 | -111.50687 | 39805 ft | 390 kts | 236° |
| 2026-05-05 05:32 | 37.66714 | -111.56378 | 39814 ft | 390 kts | 236° |
| 2026-05-05 05:33 | 37.63694 | -111.62025 | 39813 ft | 390 kts | 236° |
| 2026-05-05 05:33 | 37.60652 | -111.67698 | 39804 ft | 390 kts | 236° |
| 2026-05-05 05:34 | 37.57608 | -111.73362 | 39811 ft | 391 kts | 236° |
| 2026-05-05 05:34 | 37.54729 | -111.78708 | 39841 ft | 391 kts | 236° |
| 2026-05-05 05:35 | 37.51699 | -111.84327 | 39868 ft | 395 kts | 236° |
| 2026-05-05 05:35 | 37.48566 | -111.89899 | 39850 ft | 397 kts | 234° |
| 2026-05-05 05:36 | 37.45321 | -111.95466 | 39869 ft | 392 kts | 234° |
| 2026-05-05 05:36 | 37.42081 | -112.00993 | 39862 ft | 392 kts | 234° |
| 2026-05-05 05:37 | 37.38848 | -112.06500 | 39861 ft | 393 kts | 234° |
| 2026-05-05 05:37 | 37.35666 | -112.11953 | 39838 ft | 393 kts | 234° |
| 2026-05-05 05:38 | 37.32622 | -112.17168 | 39848 ft | 395 kts | 234° |
| 2026-05-05 05:38 | 37.29528 | -112.22446 | 39846 ft | 395 kts | 234° |
| 2026-05-05 05:39 | 37.26350 | -112.27851 | 39844 ft | 396 kts | 234° |
| 2026-05-05 05:39 | 37.23081 | -112.33398 | 39853 ft | 396 kts | 234° |
| 2026-05-05 05:40 | 37.19803 | -112.38950 | 39853 ft | 396 kts | 234° |
| 2026-05-05 05:40 | 37.16527 | -112.44486 | 39851 ft | 396 kts | 234° |
| 2026-05-05 05:41 | 37.13228 | -112.50052 | 39845 ft | 398 kts | 233° |
| 2026-05-05 05:41 | 37.09909 | -112.55630 | 39856 ft | 399 kts | 233° |
| 2026-05-05 05:42 | 37.06587 | -112.61213 | 39869 ft | 399 kts | 233° |
| 2026-05-05 05:42 | 37.03273 | -112.66806 | 39906 ft | 399 kts | 234° |
| 2026-05-05 05:43 | 36.99967 | -112.72387 | 39934 ft | 399 kts | 233° |
| 2026-05-05 05:43 | 36.96646 | -112.77970 | 39965 ft | 399 kts | 233° |
| 2026-05-05 05:44 | 36.93316 | -112.83554 | 39993 ft | 401 kts | 233° |
| 2026-05-05 05:44 | 36.89964 | -112.89156 | 40012 ft | 402 kts | 233° |
| 2026-05-05 05:45 | 36.86612 | -112.94749 | 40014 ft | 402 kts | 233° |
| 2026-05-05 05:45 | 36.83283 | -113.00293 | 40002 ft | 402 kts | 233° |
| 2026-05-05 05:46 | 36.79929 | -113.05871 | 39980 ft | 400 kts | 233° |
| 2026-05-05 05:46 | 36.76589 | -113.11414 | 39965 ft | 399 kts | 233° |
| 2026-05-05 05:47 | 36.73240 | -113.16961 | 39917 ft | 400 kts | 233° |
| 2026-05-05 05:47 | 36.69887 | -113.22502 | 39887 ft | 400 kts | 233° |
| 2026-05-05 05:48 | 36.66525 | -113.28043 | 39870 ft | 400 kts | 233° |
| 2026-05-05 05:48 | 36.63168 | -113.33575 | 39860 ft | 400 kts | 233° |
| 2026-05-05 05:49 | 36.59921 | -113.39197 | 39847 ft | 400 kts | 234° |
| 2026-05-05 05:49 | 36.56726 | -113.44890 | 39855 ft | 402 kts | 234° |
| 2026-05-05 05:50 | 36.53497 | -113.50603 | 39861 ft | 404 kts | 234° |
| 2026-05-05 05:50 | 36.50252 | -113.56315 | 39841 ft | 404 kts | 234° |
| 2026-05-05 05:51 | 36.46999 | -113.62023 | 39842 ft | 404 kts | 234° |
| 2026-05-05 05:51 | 36.43745 | -113.67723 | 39841 ft | 403 kts | 234° |
| 2026-05-05 05:52 | 36.40517 | -113.73367 | 39842 ft | 403 kts | 234° |
| 2026-05-05 05:52 | 36.37265 | -113.79045 | 39834 ft | 404 kts | 233° |
| 2026-05-05 05:53 | 36.33979 | -113.84765 | 39826 ft | 404 kts | 233° |
| 2026-05-05 05:53 | 36.30715 | -113.90438 | 39804 ft | 404 kts | 233° |
| 2026-05-05 05:54 | 36.27465 | -113.96077 | 39811 ft | 404 kts | 233° |
| 2026-05-05 05:54 | 36.24192 | -114.01745 | 39798 ft | 404 kts | 233° |
| 2026-05-05 05:55 | 36.20919 | -114.07402 | 39835 ft | 404 kts | 233° |
| 2026-05-05 05:55 | 36.17645 | -114.13056 | 39808 ft | 404 kts | 233° |
| 2026-05-05 05:56 | 36.14354 | -114.18714 | 39791 ft | 404 kts | 233° |
| 2026-05-05 05:56 | 36.11067 | -114.24367 | 39789 ft | 404 kts | 233° |
| 2026-05-05 05:57 | 36.07652 | -114.29862 | 39783 ft | 400 kts | 229° |
| 2026-05-05 05:57 | 36.03979 | -114.35022 | 39791 ft | 399 kts | 228° |
| 2026-05-05 05:58 | 36.00298 | -114.40152 | 39808 ft | 399 kts | 228° |
| 2026-05-05 05:58 | 35.96602 | -114.45279 | 39803 ft | 399 kts | 228° |
| 2026-05-05 05:59 | 35.92910 | -114.50381 | 39818 ft | 399 kts | 228° |
| 2026-05-05 05:59 | 35.89213 | -114.55479 | 39830 ft | 399 kts | 228° |
| 2026-05-05 06:00 | 35.85515 | -114.60571 | 39780 ft | 398 kts | 227° |
| 2026-05-05 06:00 | 35.81810 | -114.65663 | 39859 ft | 398 kts | 228° |
| 2026-05-05 06:01 | 35.78108 | -114.70741 | 39852 ft | 398 kts | 227° |
| 2026-05-05 06:01 | 35.74401 | -114.75812 | 39852 ft | 398 kts | 227° |
| 2026-05-05 06:02 | 35.70690 | -114.80878 | 39896 ft | 398 kts | 227° |
| 2026-05-05 06:02 | 35.66974 | -114.85952 | 39891 ft | 399 kts | 227° |
| 2026-05-05 06:03 | 35.63271 | -114.91032 | 39895 ft | 399 kts | 227° |
| 2026-05-05 06:03 | 35.59569 | -114.96100 | 39895 ft | 399 kts | 227° |
| 2026-05-05 06:04 | 35.55849 | -115.01170 | 39909 ft | 399 kts | 227° |
| 2026-05-05 06:04 | 35.52135 | -115.06229 | 39915 ft | 401 kts | 227° |
| 2026-05-05 06:05 | 35.48365 | -115.11279 | 39910 ft | 402 kts | 226° |
| 2026-05-05 06:05 | 35.44572 | -115.16238 | 39890 ft | 401 kts | 227° |
| 2026-05-05 06:06 | 35.40757 | -115.21212 | 39908 ft | 400 kts | 227° |
| 2026-05-05 06:06 | 35.37057 | -115.26035 | 39914 ft | 400 kts | 227° |
| 2026-05-05 06:07 | 35.33244 | -115.30996 | 39925 ft | 400 kts | 227° |
| 2026-05-05 06:07 | 35.29432 | -115.35951 | 39938 ft | 400 kts | 226° |
| 2026-05-05 06:08 | 35.25602 | -115.40915 | 39936 ft | 401 kts | 226° |
| 2026-05-05 06:08 | 35.21771 | -115.45870 | 39935 ft | 401 kts | 226° |
| 2026-05-05 06:09 | 35.17938 | -115.50816 | 39925 ft | 401 kts | 226° |
| 2026-05-05 06:09 | 35.14131 | -115.55725 | 39925 ft | 401 kts | 226° |
| 2026-05-05 06:10 | 35.10324 | -115.60634 | 39913 ft | 398 kts | 226° |
| 2026-05-05 06:10 | 35.06519 | -115.65520 | 39940 ft | 398 kts | 226° |
| 2026-05-05 06:11 | 35.02695 | -115.70412 | 39918 ft | 399 kts | 226° |
| 2026-05-05 06:11 | 34.98854 | -115.75310 | 39917 ft | 399 kts | 226° |
| 2026-05-05 06:12 | 34.95048 | -115.80156 | 39915 ft | 399 kts | 226° |
| 2026-05-05 06:12 | 34.91224 | -115.85016 | 39897 ft | 399 kts | 226° |
| 2026-05-05 06:13 | 34.87396 | -115.89872 | 39896 ft | 399 kts | 226° |
| 2026-05-05 06:13 | 34.83553 | -115.94736 | 39899 ft | 399 kts | 226° |
| 2026-05-05 06:14 | 34.79695 | -115.99612 | 39868 ft | 400 kts | 226° |
| 2026-05-05 06:14 | 34.75858 | -116.04481 | 39884 ft | 398 kts | 226° |
| 2026-05-05 06:15 | 34.72043 | -116.09365 | 39886 ft | 398 kts | 226° |
| 2026-05-05 06:15 | 34.68223 | -116.14239 | 39857 ft | 395 kts | 226° |
| 2026-05-05 06:16 | 34.66338 | -116.16638 | 39543 ft | 391 kts | 226° |
| 2026-05-05 06:16 | 34.64459 | -116.19026 | 38928 ft | 391 kts | 226° |
| 2026-05-05 06:16 | 34.62576 | -116.21417 | 38291 ft | 391 kts | 226° |
| 2026-05-05 06:16 | 34.60698 | -116.23799 | 37664 ft | 388 kts | 226° |
| 2026-05-05 06:17 | 34.58835 | -116.26157 | 37060 ft | 387 kts | 226° |
| 2026-05-05 06:17 | 34.56974 | -116.28510 | 36392 ft | 386 kts | 226° |
| 2026-05-05 06:17 | 34.55120 | -116.30852 | 35773 ft | 384 kts | 226° |
| 2026-05-05 06:17 | 34.53269 | -116.33190 | 35059 ft | 384 kts | 226° |
| 2026-05-05 06:18 | 34.51451 | -116.35484 | 34427 ft | 383 kts | 226° |
| 2026-05-05 06:18 | 34.49641 | -116.37766 | 33802 ft | 381 kts | 226° |
| 2026-05-05 06:18 | 34.47815 | -116.40068 | 33004 ft | 381 kts | 226° |
| 2026-05-05 06:18 | 34.46608 | -116.41588 | 32357 ft | 384 kts | 226° |
| 2026-05-05 06:19 | 34.44450 | -116.44391 | 31196 ft | 392 kts | 228° |
| 2026-05-05 06:19 | 34.42762 | -116.46964 | 30166 ft | 399 kts | 232° |
| 2026-05-05 06:19 | 34.41740 | -116.48730 | 29321 ft | 406 kts | 234° |
| 2026-05-05 06:19 | 34.40257 | -116.51670 | 28061 ft | 416 kts | 238° |
| 2026-05-05 06:20 | 34.38930 | -116.54756 | 27335 ft | 414 kts | 240° |
| 2026-05-05 06:20 | 34.37622 | -116.57847 | 26715 ft | 410 kts | 240° |
| 2026-05-05 06:20 | 34.36328 | -116.60920 | 26079 ft | 408 kts | 240° |
| 2026-05-05 06:20 | 34.35054 | -116.63971 | 25588 ft | 408 kts | 240° |
| 2026-05-05 06:21 | 34.33830 | -116.66924 | 25124 ft | 404 kts | 241° |
| 2026-05-05 06:21 | 34.32597 | -116.69949 | 24661 ft | 398 kts | 241° |
| 2026-05-05 06:21 | 34.31397 | -116.72951 | 24179 ft | 392 kts | 242° |
| 2026-05-05 06:21 | 34.30215 | -116.75907 | 23776 ft | 387 kts | 242° |
| 2026-05-05 06:22 | 34.29045 | -116.78822 | 23299 ft | 383 kts | 241° |
| 2026-05-05 06:22 | 34.27885 | -116.81701 | 22780 ft | 379 kts | 241° |
| 2026-05-05 06:22 | 34.26741 | -116.84534 | 22257 ft | 375 kts | 241° |
| 2026-05-05 06:22 | 34.25608 | -116.87331 | 21758 ft | 371 kts | 242° |
| 2026-05-05 06:23 | 34.24480 | -116.90121 | 21241 ft | 369 kts | 241° |
| 2026-05-05 06:23 | 34.23360 | -116.92891 | 20731 ft | 366 kts | 241° |
| 2026-05-05 06:23 | 34.22245 | -116.95662 | 20228 ft | 364 kts | 242° |
| 2026-05-05 06:23 | 34.21242 | -116.98464 | 19728 ft | 363 kts | 245° |
| 2026-05-05 06:24 | 34.20385 | -117.01282 | 19265 ft | 361 kts | 248° |
| 2026-05-05 06:24 | 34.19590 | -117.04198 | 18774 ft | 359 kts | 249° |
| 2026-05-05 06:24 | 34.18823 | -117.07010 | 18301 ft | 356 kts | 249° |
| 2026-05-05 06:24 | 34.18042 | -117.09881 | 17813 ft | 352 kts | 249° |
| 2026-05-05 06:25 | 34.17292 | -117.12636 | 17357 ft | 348 kts | 249° |
| 2026-05-05 06:25 | 34.16542 | -117.15397 | 16889 ft | 345 kts | 249° |
| 2026-05-05 06:25 | 34.15788 | -117.18153 | 16430 ft | 342 kts | 250° |
| 2026-05-05 06:25 | 34.15040 | -117.20872 | 16022 ft | 339 kts | 250° |
| 2026-05-05 06:26 | 34.14300 | -117.23561 | 15579 ft | 336 kts | 250° |
| 2026-05-05 06:26 | 34.13563 | -117.26233 | 15222 ft | 331 kts | 250° |
| 2026-05-05 06:26 | 34.12843 | -117.28844 | 14899 ft | 326 kts | 250° |
| 2026-05-05 06:26 | 34.12131 | -117.31419 | 14584 ft | 320 kts | 250° |
| 2026-05-05 06:27 | 34.11429 | -117.33957 | 14262 ft | 316 kts | 250° |
| 2026-05-05 06:27 | 34.10072 | -117.38974 | 13520 ft | 313 kts | 252° |
| 2026-05-05 06:27 | 34.09450 | -117.41480 | 13124 ft | 311 kts | 252° |
| 2026-05-05 06:28 | 34.08836 | -117.43968 | 12736 ft | 309 kts | 252° |
| 2026-05-05 06:28 | 34.08221 | -117.46447 | 12351 ft | 307 kts | 252° |
| 2026-05-05 06:28 | 34.07596 | -117.48899 | 11976 ft | 305 kts | 250° |
| 2026-05-05 06:28 | 34.06857 | -117.51289 | 11598 ft | 303 kts | 246° |
| 2026-05-05 06:29 | 34.06030 | -117.53625 | 11227 ft | 302 kts | 245° |
| 2026-05-05 06:29 | 34.05190 | -117.55952 | 10851 ft | 300 kts | 245° |
| 2026-05-05 06:29 | 34.04357 | -117.58252 | 10488 ft | 298 kts | 245° |
| 2026-05-05 06:29 | 34.03530 | -117.60540 | 10119 ft | 296 kts | 245° |
| 2026-05-05 06:30 | 34.02710 | -117.62814 | 9748 ft | 295 kts | 245° |
| 2026-05-05 06:30 | 34.01894 | -117.65072 | 9355 ft | 292 kts | 245° |
| 2026-05-05 06:30 | 34.01125 | -117.67325 | 8950 ft | 290 kts | 250° |
| 2026-05-05 06:30 | 34.00619 | -117.69680 | 8562 ft | 289 kts | 258° |
| 2026-05-05 06:31 | 34.00345 | -117.72062 | 8137 ft | 284 kts | 261° |
| 2026-05-05 06:31 | 34.00122 | -117.74406 | 7754 ft | 278 kts | 262° |
| 2026-05-05 06:31 | 33.99909 | -117.76700 | 7350 ft | 272 kts | 262° |
| 2026-05-05 06:31 | 33.99695 | -117.78933 | 7079 ft | 263 kts | 262° |
| 2026-05-05 06:32 | 33.99487 | -117.81086 | 6894 ft | 252 kts | 262° |
| 2026-05-05 06:32 | 33.99286 | -117.83140 | 6720 ft | 241 kts | 262° |
| 2026-05-05 06:32 | 33.99095 | -117.85115 | 6560 ft | 234 kts | 262° |
| 2026-05-05 06:32 | 33.98907 | -117.87035 | 6386 ft | 228 kts | 261° |
| 2026-05-05 06:33 | 33.98726 | -117.88895 | 6249 ft | 218 kts | 261° |
| 2026-05-05 06:33 | 33.98549 | -117.90701 | 6108 ft | 216 kts | 261° |
| 2026-05-05 06:33 | 33.98372 | -117.92495 | 5940 ft | 215 kts | 262° |
| 2026-05-05 06:33 | 33.98193 | -117.94294 | 5748 ft | 216 kts | 262° |
| 2026-05-05 06:34 | 33.98017 | -117.96087 | 5570 ft | 215 kts | 262° |
| 2026-05-05 06:34 | 33.97840 | -117.97873 | 5386 ft | 211 kts | 262° |
| 2026-05-05 06:34 | 33.97669 | -117.99598 | 5196 ft | 202 kts | 262° |
| 2026-05-05 06:34 | 33.97507 | -118.01250 | 4994 ft | 194 kts | 262° |
| 2026-05-05 06:35 | 33.97348 | -118.02834 | 4818 ft | 187 kts | 262° |
| 2026-05-05 06:35 | 33.97193 | -118.04379 | 4625 ft | 185 kts | 262° |
| 2026-05-05 06:35 | 33.97039 | -118.05918 | 4432 ft | 185 kts | 262° |
| 2026-05-05 06:35 | 33.96887 | -118.07457 | 4263 ft | 183 kts | 262° |
| 2026-05-05 06:36 | 33.96740 | -118.08940 | 4070 ft | 178 kts | 262° |
| 2026-05-05 06:36 | 33.96594 | -118.10401 | 3889 ft | 173 kts | 262° |
| 2026-05-05 06:36 | 33.96449 | -118.11833 | 3698 ft | 171 kts | 263° |
| 2026-05-05 06:36 | 33.96315 | -118.13242 | 3601 ft | 164 kts | 263° |
| 2026-05-05 06:37 | 33.96190 | -118.14552 | 3573 ft | 155 kts | 263° |
| 2026-05-05 06:37 | 33.96059 | -118.15871 | 3597 ft | 161 kts | 262° |
| 2026-05-05 06:37 | 33.95921 | -118.17213 | 3572 ft | 162 kts | 262° |
| 2026-05-05 06:37 | 33.95780 | -118.18561 | 3364 ft | 161 kts | 262° |
| 2026-05-05 06:38 | 33.95639 | -118.19892 | 3145 ft | 161 kts | 262° |
| 2026-05-05 06:38 | 33.95501 | -118.21200 | 2932 ft | 160 kts | 262° |
| 2026-05-05 06:38 | 33.95360 | -118.22529 | 2718 ft | 159 kts | 263° |
| 2026-05-05 06:38 | 33.95222 | -118.23848 | 2510 ft | 160 kts | 263° |
| 2026-05-05 06:39 | 33.95086 | -118.25149 | 2304 ft | 160 kts | 263° |
| 2026-05-05 06:39 | 33.94950 | -118.26455 | 2099 ft | 158 kts | 263° |
| 2026-05-05 06:39 | 33.94815 | -118.27758 | 1874 ft | 157 kts | 263° |
| 2026-05-05 06:39 | 33.94680 | -118.29070 | 1656 ft | 157 kts | 262° |
| 2026-05-05 06:40 | 33.94548 | -118.30352 | 1443 ft | 153 kts | 263° |
| 2026-05-05 06:40 | 33.94416 | -118.31638 | 1219 ft | 147 kts | 263° |
| 2026-05-05 06:40 | 33.94294 | -118.32831 | 1028 ft | 145 kts | 263° |
| 2026-05-05 06:40 | 33.94170 | -118.34029 | 836 ft | 143 kts | 263° |
| 2026-05-05 06:41 | 33.94048 | -118.35217 | 615 ft | 143 kts | 264° |
| 2026-05-05 06:41 | 33.93929 | -118.36395 | 456 ft | 142 kts | 263° |
| 2026-05-05 06:41 | 33.93802 | -118.37562 | 303 ft | 139 kts | 263° |
| 2026-05-05 06:41 | 33.93690 | -118.38719 | 141 ft | 137 kts | 264° |
| 2026-05-05 06:42 | 33.93581 | -118.39820 | 106 ft | 123 kts | 263° |
| 2026-05-05 06:42 | 33.93497 | -118.40634 | 103 ft | 70 kts | 263° |
| 2026-05-05 06:42 | 33.93476 | -118.40918 | 105 ft | 24 kts | 279° |
| 2026-05-05 06:42 | 33.93510 | -118.41096 | 105 ft | 8 kts | 298° |
| 2026-05-05 06:43 | 33.93543 | -118.41147 | 103 ft | 9 kts | 290° |
| 2026-05-05 06:43 | 33.93576 | -118.41225 | 106 ft | 11 kts | 311° |
| 2026-05-05 06:43 | 33.93650 | -118.41268 | 105 ft | 13 kts | 347° |
| 2026-05-05 06:43 | 33.93723 | -118.41277 | 105 ft | 8 kts | 12° |
| 2026-05-05 06:44 | 33.93732 | -118.41273 | 105 ft | 2 kts | 19° |
| 2026-05-05 06:44 | 33.93763 | -118.41261 | 105 ft | 7 kts | 15° |
| 2026-05-05 06:44 | 33.93768 | -118.41260 | 103 ft | 0 kts | 13° |
| 2026-05-05 06:45 | 33.93769 | -118.41260 | 103 ft | 0 kts | 13° |
| 2026-05-05 06:45 | 33.93770 | -118.41259 | 104 ft | 2 kts | 13° |
| 2026-05-05 06:45 | 33.93807 | -118.41244 | 103 ft | 8 kts | 27° |
| 2026-05-05 06:46 | 33.93840 | -118.41186 | 102 ft | 10 kts | 74° |
| 2026-05-05 06:46 | 33.93856 | -118.41084 | 101 ft | 14 kts | 81° |
| 2026-05-05 06:46 | 33.93865 | -118.40969 | 104 ft | 14 kts | 85° |
| 2026-05-05 06:46 | 33.93872 | -118.40870 | 101 ft | 9 kts | 84° |
| 2026-05-05 06:47 | 33.93902 | -118.40802 | 105 ft | 9 kts | 22° |
| 2026-05-05 06:47 | 33.93976 | -118.40816 | 103 ft | 13 kts | 347° |
| 2026-05-05 06:47 | 33.94045 | -118.40828 | 102 ft | 5 kts | 353° |
| 2026-05-05 06:47 | 33.94082 | -118.40837 | 103 ft | 3 kts | 322° |
| 2026-05-05 06:48 | 33.94085 | -118.40842 | 103 ft | 0 kts | 313° |
| 2026-05-05 06:48 | 33.94087 | -118.40844 | 103 ft | 3 kts | 319° |
| 2026-05-05 06:49 | 33.94132 | -118.40841 | 102 ft | 8 kts | 351° |
| 2026-05-05 06:49 | 33.94156 | -118.40885 | 105 ft | 8 kts | 291° |
| 2026-05-05 06:49 | 33.94158 | -118.40910 | 104 ft | 1 kts | 261° |
| 2026-05-05 06:49 | 33.94156 | -118.40927 | 103 ft | 0 kts | 262° |